createdAt,value
2023-02-02T00:04:27.540Z,1.76
2023-02-02T00:09:35.342Z,1.76
2023-02-02T00:14:44.407Z,1.77
2023-02-02T00:19:51.619Z,1.76
2023-02-02T00:24:57.260Z,1.68
2023-02-02T00:30:05.671Z,1.57
2023-02-02T00:35:14.585Z,1.44
2023-02-02T00:40:22.459Z,1.30
2023-02-02T00:45:29.855Z,1.18
2023-02-02T00:50:37.340Z,1.00
2023-02-02T00:55:45.475Z,0.84
2023-02-02T01:00:53.242Z,0.73
2023-02-02T01:06:01.301Z,0.56
2023-02-02T01:11:09.170Z,0.40
2023-02-02T01:16:16.469Z,0.30
2023-02-02T01:21:22.599Z,0.22
2023-02-02T01:26:29.752Z,0.16
2023-02-02T01:31:37.836Z,0.12
2023-02-02T01:36:46.340Z,0.05
2023-02-02T01:41:54.362Z,0.00
2023-02-02T01:47:01.590Z,0.01
2023-02-02T01:52:07.625Z,0.01
2023-02-02T01:57:24.002Z,0.03
2023-02-02T02:02:33.544Z,0.07
2023-02-02T02:07:44.712Z,0.08
2023-02-02T02:12:53.224Z,0.09
2023-02-02T02:18:10.877Z,0.14
2023-02-02T02:24:15.447Z,0.16
2023-02-02T02:29:43.220Z,0.17
2023-02-02T02:35:00.167Z,0.22
2023-02-02T02:40:15.121Z,0.26
2023-02-02T02:45:23.579Z,0.30
2023-02-02T02:50:31.078Z,0.32
2023-02-02T02:55:41.894Z,0.35
2023-02-02T03:01:00.591Z,0.37
2023-02-02T03:06:14.098Z,0.35
2023-02-02T03:11:21.558Z,0.31
2023-02-02T03:16:28.770Z,0.29
2023-02-02T03:21:35.431Z,0.28
2023-02-02T03:26:43.061Z,0.30
2023-02-02T03:31:50.675Z,0.35
2023-02-02T03:36:58.146Z,0.40
2023-02-02T03:42:05.838Z,0.46
2023-02-02T03:47:13.209Z,0.53
2023-02-02T03:52:20.608Z,0.57
2023-02-02T03:57:28.081Z,0.57
2023-02-02T04:02:35.715Z,0.60
2023-02-02T04:07:44.784Z,0.64
2023-02-02T04:12:52.889Z,0.64
2023-02-02T04:18:00.261Z,0.65
2023-02-02T04:23:07.785Z,0.68
2023-02-02T04:28:15.031Z,0.70
2023-02-02T04:33:22.682Z,0.69
2023-02-02T04:38:29.900Z,0.72
2023-02-02T04:43:39.061Z,0.75
2023-02-02T04:48:49.198Z,0.75
2023-02-02T04:53:57.642Z,0.77
2023-02-02T04:59:05.861Z,0.81
2023-02-02T05:04:14.135Z,0.83
2023-02-02T05:09:22.090Z,0.84
2023-02-02T05:14:29.697Z,0.86
2023-02-02T05:19:36.823Z,0.89
2023-02-02T05:24:44.305Z,0.91
2023-02-02T05:29:51.468Z,0.94
2023-02-02T05:34:57.102Z,0.95
2023-02-02T05:40:04.675Z,0.95
2023-02-02T05:45:14.586Z,0.94
2023-02-02T05:50:22.255Z,0.97
2023-02-02T05:55:29.774Z,0.98
2023-02-02T06:00:37.129Z,0.97
2023-02-02T06:05:45.069Z,0.98
2023-02-02T06:10:53.332Z,1.00
2023-02-02T06:16:01.048Z,1.01
2023-02-02T06:21:10.103Z,1.02
2023-02-02T06:26:19.244Z,1.07
2023-02-02T06:31:26.698Z,1.12
2023-02-02T06:36:34.825Z,1.15
2023-02-02T06:41:40.899Z,1.18
2023-02-02T06:46:49.373Z,1.25
2023-02-02T06:51:57.043Z,1.29
2023-02-02T06:57:04.467Z,1.32
2023-02-02T07:02:14.546Z,1.37
2023-02-02T07:07:21.819Z,1.44
2023-02-02T07:12:30.153Z,1.46
2023-02-02T07:17:37.744Z,1.48
2023-02-02T07:22:45.375Z,1.49
2023-02-02T07:27:55.693Z,1.51
2023-02-02T07:33:02.908Z,1.51
2023-02-02T07:38:10.431Z,1.53
2023-02-02T07:43:19.683Z,1.50
2023-02-02T07:48:29.593Z,1.50
2023-02-02T07:53:37.627Z,1.53
2023-02-02T07:58:45.790Z,1.50
2023-02-02T08:03:53.828Z,1.46
2023-02-02T08:09:02.039Z,1.42
2023-02-02T08:14:09.236Z,1.34
2023-02-02T08:19:15.788Z,1.27
2023-02-02T08:24:23.259Z,1.27
2023-02-02T08:29:30.427Z,1.21
2023-02-02T08:34:37.332Z,1.13
2023-02-02T08:39:44.913Z,1.01
2023-02-02T08:45:59.858Z,0.94
2023-02-02T08:50:18.738Z,0.88
2023-02-02T08:55:26.461Z,0.89
2023-02-02T09:00:33.934Z,0.92
2023-02-02T09:05:41.717Z,0.91
2023-02-02T09:10:49.090Z,0.91
2023-02-02T09:16:00.134Z,0.93
2023-02-02T09:21:10.239Z,0.95
2023-02-02T09:26:19.670Z,0.99
2023-02-02T09:31:27.699Z,1.05
2023-02-02T09:36:35.660Z,1.06
2023-02-02T09:42:17.556Z,1.10
2023-02-02T09:47:35.009Z,1.12
2023-02-02T09:52:46.124Z,1.14
2023-02-02T09:57:57.538Z,1.16
2023-02-02T10:03:12.458Z,1.14
2023-02-02T10:08:34.704Z,1.07
2023-02-02T10:13:45.217Z,1.00
2023-02-02T10:18:57.633Z,0.96
2023-02-02T10:24:06.339Z,0.94
2023-02-02T10:29:19.796Z,0.93
2023-02-02T10:34:33.170Z,0.89
2023-02-02T10:40:04.605Z,0.85
2023-02-02T10:45:17.278Z,0.83
2023-02-02T10:50:26.177Z,0.84
2023-02-02T10:55:44.037Z,0.86
2023-02-02T11:00:55.004Z,0.88
2023-02-02T11:06:22.405Z,0.89
2023-02-02T11:11:35.754Z,0.96
2023-02-02T11:16:44.764Z,1.02
2023-02-02T11:21:54.392Z,1.04
2023-02-02T11:27:04.672Z,1.04
2023-02-02T11:32:31.273Z,1.04
2023-02-02T11:37:39.941Z,1.08
2023-02-02T11:42:49.660Z,1.12
2023-02-02T11:48:01.987Z,1.17
2023-02-02T11:53:21.441Z,1.28
2023-02-02T11:58:30.837Z,1.43
2023-02-02T12:03:40.802Z,1.55
2023-02-02T12:08:48.918Z,1.69
2023-02-02T12:14:12.927Z,1.79
2023-02-02T12:19:52.884Z,1.88
2023-02-02T12:25:09.535Z,1.97
2023-02-02T12:30:30.259Z,2.01
2023-02-02T12:35:57.824Z,2.04
2023-02-02T12:41:24.896Z,2.06
2023-02-02T12:46:51.653Z,2.07
2023-02-02T12:52:14.098Z,2.07
2023-02-02T12:57:32.238Z,2.08
2023-02-02T13:02:50.797Z,2.11
2023-02-02T13:08:03.228Z,2.15
2023-02-02T13:13:18.196Z,2.20
2023-02-02T13:18:30.218Z,2.25
2023-02-02T13:23:42.937Z,2.27
2023-02-02T13:28:56.686Z,2.31
2023-02-02T13:34:16.651Z,2.34
2023-02-02T13:39:31.268Z,2.39
2023-02-02T13:44:44.048Z,2.46
2023-02-02T13:49:55.285Z,2.51
2023-02-02T13:55:37.723Z,2.54
2023-02-02T14:00:50.560Z,2.57
2023-02-02T14:06:13.485Z,2.57
2023-02-02T14:11:25.431Z,2.61
2023-02-02T14:16:47.662Z,2.61
2023-02-02T14:22:19.359Z,2.62
2023-02-02T14:27:56.847Z,2.64
2023-02-02T14:33:28.433Z,2.65
2023-02-02T14:39:01.782Z,2.62
2023-02-02T14:44:10.061Z,2.65
2023-02-02T14:49:26.071Z,2.69
2023-02-02T14:54:39.880Z,2.73
2023-02-02T14:59:49.955Z,2.75
2023-02-02T15:05:39.215Z,2.76
2023-02-02T15:11:30.724Z,2.69
2023-02-02T15:16:41.625Z,2.63
2023-02-02T15:21:51.091Z,2.59
2023-02-02T15:27:00.206Z,2.58
2023-02-02T15:32:15.192Z,2.54
2023-02-02T15:37:27.315Z,2.50
2023-02-02T15:42:55.484Z,2.48
2023-02-02T15:48:08.124Z,2.43
2023-02-02T15:53:22.789Z,2.40
2023-02-02T15:58:33.595Z,2.39
2023-02-02T16:03:51.702Z,2.36
2023-02-02T16:08:59.234Z,2.30
2023-02-02T16:14:10.795Z,2.22
2023-02-02T16:19:22.278Z,2.13
2023-02-02T16:24:33.044Z,2.04
2023-02-02T16:29:42.849Z,1.99
2023-02-02T16:34:50.593Z,1.99
2023-02-02T16:40:15.303Z,2.01
2023-02-02T16:45:47.025Z,2.03
2023-02-02T16:51:07.002Z,2.05
2023-02-02T16:56:28.193Z,2.04
2023-02-02T17:01:40.650Z,2.07
2023-02-02T17:06:53.223Z,2.07
2023-02-02T17:12:04.169Z,2.04
2023-02-02T17:17:13.312Z,1.97
2023-02-02T17:22:24.477Z,1.88
2023-02-02T17:27:35.982Z,1.82
2023-02-02T17:32:43.872Z,1.79
2023-02-02T17:37:53.783Z,1.78
2023-02-02T17:43:02.432Z,1.76
2023-02-02T17:48:14.555Z,1.77
2023-02-02T17:53:23.592Z,1.75
2023-02-02T17:58:30.762Z,1.74
2023-02-02T18:03:38.475Z,1.73
2023-02-02T18:08:46.157Z,1.72
2023-02-02T18:13:54.217Z,1.69
2023-02-02T18:19:03.356Z,1.66
2023-02-02T18:24:15.255Z,1.66
2023-02-02T18:29:22.455Z,1.65
2023-02-02T18:34:33.712Z,1.62
2023-02-02T18:39:41.804Z,1.59
2023-02-02T18:44:49.182Z,1.56
2023-02-02T18:49:58.905Z,1.52
2023-02-02T18:55:07.076Z,1.49
2023-02-02T19:00:16.961Z,1.47
2023-02-02T19:05:42.130Z,1.47
2023-02-02T19:10:49.629Z,1.45
2023-02-02T19:15:58.595Z,1.42
2023-02-02T19:21:12.894Z,1.38
2023-02-02T19:26:25.622Z,1.35
2023-02-02T19:31:34.109Z,1.31
2023-02-02T19:36:46.437Z,1.29
2023-02-02T19:41:58.040Z,1.26
2023-02-02T19:47:18.849Z,1.18
2023-02-02T19:52:28.267Z,1.10
2023-02-02T19:57:41.035Z,1.05
2023-02-02T20:02:58.533Z,1.01
2023-02-02T20:08:10.108Z,0.98
2023-02-02T20:13:23.016Z,0.97
2023-02-02T20:18:41.531Z,0.94
2023-02-02T20:23:49.995Z,0.85
2023-02-02T20:29:00.057Z,0.60
2023-02-02T20:34:23.999Z,0.39
2023-02-02T20:39:36.495Z,0.29
2023-02-02T20:44:44.064Z,0.22
2023-02-02T20:49:51.617Z,0.18
2023-02-02T20:54:58.997Z,0.18
2023-02-02T21:00:07.625Z,0.20
2023-02-02T21:05:15.242Z,0.22
2023-02-02T21:10:23.083Z,0.22
2023-02-02T21:15:30.711Z,0.26
2023-02-02T21:20:38.502Z,0.28
2023-02-02T21:25:46.411Z,0.28
2023-02-02T21:30:53.871Z,0.27
2023-02-02T21:36:05.104Z,0.21
2023-02-02T21:41:17.082Z,0.10
2023-02-02T21:46:30.635Z,0.02
2023-02-02T21:51:39.194Z,-0.01
2023-02-02T21:56:48.817Z,0.02
2023-02-02T22:01:56.966Z,0.03
2023-02-02T22:07:13.402Z,0.08
2023-02-02T22:12:23.447Z,0.16
2023-02-02T22:17:39.888Z,0.20
2023-02-02T22:22:49.629Z,0.23
2023-02-02T22:27:58.802Z,0.27
2023-02-02T22:33:08.054Z,0.33
2023-02-02T22:38:19.567Z,0.35
2023-02-02T22:43:26.784Z,0.35
2023-02-02T22:48:32.199Z,0.36
2023-02-02T22:53:39.687Z,0.36
2023-02-02T22:58:47.699Z,0.36
2023-02-02T23:03:55.047Z,0.34
2023-02-02T23:09:02.239Z,0.35
2023-02-02T23:14:07.798Z,0.35
2023-02-02T23:19:14.956Z,0.31
2023-02-02T23:24:20.425Z,0.25
2023-02-02T23:29:27.926Z,0.19
2023-02-02T23:34:35.143Z,0.12
2023-02-02T23:39:40.790Z,0.11
2023-02-02T23:44:48.269Z,0.10
2023-02-02T23:49:55.712Z,0.06
2023-02-02T23:55:04.947Z,0.02
